メインページ
METAR-TAF:

METAR-TAF

空港 :

ネータージー・スバース・チャンドラ・ボース国際空港

コルカタ, インド

緯度: 22-39N, 経度: 088-27E, 海抜: 4m

現時点の気象観測

当レポートは6分前の00:00(UTC)に作成
南東の風 4kt
気温 27°C
湿度 94%
気圧 996 hPa
視程: 2800m
高度2000ftの雲は散在している
高度10000ftの雲は散在している
煙霧

METAR: VECC 170000Z 13004KT 2800 HZ SCT020 SCT100 27/26 Q0996 NOSIG

時間: 05:36 (00:06 UTC)

予報

当レポートは1時間6分前の23:00(UTC)に作成
予報は17日の 00時(UTC)から 18日の 06時(UTC)まで有効
東/南東の風 5kt
視程: 2800m
高度1800ftの雲は散在している
高度9000ftの千切れ雲あり
小雨, 煙霧
間 17から03 UTC徐々に
視程: 3200m
小雨, 煙霧
17日の 06時(UTC)から 17日の 10時(UTC)まで一時的に
視程: 2000m
高度1500ftの雲は散在している
高度2500ftの雲はほとんどない, 積乱雲.
高度9000ftの千切れ雲あり
激しい雷雨, 雨
17日の 22時(UTC)から 17日の 24時(UTC)まで徐々に
視程: 2800m
小雨, 煙霧
18日の 03時(UTC)から 18日の 05時(UTC)まで徐々に
視程: 3200m
小雨, 煙霧

TAF: VECC 162300Z 1700/1806 12005KT 2800 -RA HZ SCT018 BKN090 BECMG 1703 1705 3200 -RA HZ TEMPO 1706/1710 2000 TSRA SCT015 FEW025CB BKN090 BECMG 1722/1724 2800 -RA HZ BECMG 1803/1805 3200 -RA HZ

4,000以上の空港の気象観測と天気予報(METAR報とTAF報)

利用可能な観測所は地図上に黄色い丸と赤い丸で示す。

丸の上にカーソルを重ねると観測所名を参照できる。

次にクリックすると気象観測と天気予報を参照できる。

マップの切り替え:黒色「×」印の緑ボタンをクリックして拡大、「-」印の緑ボタンをクリックして縮小、緑色の三角印をクリックして隣りの地図に切り替え


METAR-TAF: